Terminal Aerodrome Forecast
Issued by NWS

Home | Current Version | Previous Version | Text Only | Print | Product List | Glossary On
Versions: 1 2 3 4 5 6 7 8 9 10 11 12 13 14 15 16 17 18
399
FTUS46 KLOX 221740
TAFSBP
TAF
KSBP 221740Z 2218/2318 30005KT P6SM SKC
     FM222000 31012KT P6SM SKC
     FM230300 31006KT P6SM SKC
     FM230500 VRB03KT P6SM SKC
     FM231200 VRB03KT 4SM BR SCT005
     FM231600 VRB03KT P6SM SKC=

USA.gov is the U.S. government's official web portal to all federal, state and local government web resources and services.